createdAt,value
2022-12-06T00:01:47.050Z,5.90
2022-12-06T00:04:16.981Z,6.00
2022-12-06T00:06:51.959Z,5.90
2022-12-06T00:09:32.044Z,6.00
2022-12-06T00:12:00.049Z,6.00
2022-12-06T00:18:36.409Z,6.00
2022-12-06T00:36:21.067Z,6.00
2022-12-06T00:38:59.084Z,5.90
2022-12-06T00:54:17.417Z,5.90
2022-12-06T00:58:07.284Z,5.90
2022-12-06T01:15:12.694Z,5.90
2022-12-06T01:23:46.692Z,5.80
2022-12-06T01:27:42.358Z,5.80
2022-12-06T01:35:09.248Z,5.80
2022-12-06T02:14:04.653Z,5.80
2022-12-06T02:17:10.675Z,5.90
2022-12-06T02:32:12.534Z,5.90
2022-12-06T02:35:22.837Z,5.90
2022-12-06T02:38:59.639Z,5.90
2022-12-06T02:49:03.971Z,6.00
2022-12-06T02:52:38.213Z,6.00
2022-12-06T02:59:39.385Z,6.00
2022-12-06T03:03:30.432Z,5.90
2022-12-06T03:10:02.637Z,5.90
2022-12-06T03:22:12.511Z,5.90
2022-12-06T03:24:10.507Z,5.80
2022-12-06T03:27:20.312Z,5.80
2022-12-06T03:36:40.411Z,5.80
2022-12-06T03:43:31.396Z,5.80
2022-12-06T03:58:29.106Z,5.70
2022-12-06T04:01:23.091Z,5.60
2022-12-06T04:04:16.037Z,5.70
2022-12-06T04:13:51.437Z,5.70
2022-12-06T04:30:28.718Z,5.70
2022-12-06T04:34:23.019Z,5.60
2022-12-06T04:37:46.836Z,5.50
2022-12-06T04:40:25.291Z,5.50
2022-12-06T04:43:30.030Z,5.50
2022-12-06T04:46:12.303Z,5.50
2022-12-06T04:49:03.725Z,5.40
2022-12-06T04:52:52.271Z,5.40
2022-12-06T04:55:11.040Z,5.50
2022-12-06T04:57:51.417Z,5.50
2022-12-06T05:00:28.091Z,5.50
2022-12-06T05:03:13.177Z,5.50
2022-12-06T05:06:22.808Z,5.60
2022-12-06T05:09:08.911Z,5.50
2022-12-06T05:12:01.561Z,5.60
2022-12-06T05:15:02.711Z,5.50
2022-12-06T05:17:55.535Z,5.60
2022-12-06T05:20:35.057Z,5.60
2022-12-06T05:23:27.195Z,5.60
2022-12-06T05:26:13.849Z,5.60
2022-12-06T05:34:02.193Z,5.50
2022-12-06T05:35:22.398Z,5.50
2022-12-06T05:38:19.698Z,5.50
2022-12-06T05:41:02.169Z,5.60
2022-12-06T05:43:56.509Z,5.50
2022-12-06T05:46:23.954Z,5.50
2022-12-06T05:49:39.802Z,5.50
2022-12-06T05:52:52.778Z,5.50
2022-12-06T05:55:37.818Z,5.60
2022-12-06T05:58:21.327Z,5.50
2022-12-06T06:01:31.336Z,5.50
2022-12-06T06:03:58.683Z,5.50
2022-12-06T06:06:33.044Z,5.50
2022-12-06T06:09:03.228Z,5.50
2022-12-06T06:11:33.512Z,5.50
2022-12-06T06:14:00.853Z,5.40
2022-12-06T06:16:43.015Z,5.40
2022-12-06T06:19:30.413Z,5.40
2022-12-06T06:22:26.272Z,5.50
2022-12-06T06:24:59.203Z,5.40
2022-12-06T06:27:33.135Z,5.30
2022-12-06T06:30:03.951Z,5.30
2022-12-06T06:32:41.746Z,5.30
2022-12-06T06:35:13.683Z,5.30
2022-12-06T06:38:11.381Z,5.30
2022-12-06T06:40:46.738Z,5.40
2022-12-06T06:43:20.541Z,5.40
2022-12-06T06:46:16.998Z,5.40
2022-12-06T06:49:03.618Z,5.40
2022-12-06T06:51:36.848Z,5.40
2022-12-06T06:56:51.015Z,5.50
2022-12-06T06:59:21.465Z,5.50
2022-12-06T07:02:21.947Z,5.50
2022-12-06T07:06:19.873Z,5.50
2022-12-06T07:08:39.643Z,5.50
2022-12-06T07:11:28.632Z,5.50
2022-12-06T07:14:04.928Z,5.50
2022-12-06T07:16:57.455Z,5.50
2022-12-06T07:24:01.246Z,5.50
2022-12-06T07:30:56.147Z,5.50
2022-12-06T07:33:32.372Z,5.50
2022-12-06T07:48:18.339Z,5.50
2022-12-06T07:51:29.506Z,5.40
2022-12-06T07:54:19.546Z,5.50
2022-12-06T08:05:29.708Z,5.50
2022-12-06T08:17:46.897Z,5.50
2022-12-06T08:21:46.775Z,5.50
2022-12-06T08:55:22.642Z,5.00
2022-12-06T08:57:57.320Z,4.90
2022-12-06T09:00:38.823Z,4.80
2022-12-06T09:16:24.428Z,4.70
2022-12-06T09:24:26.780Z,4.70
2022-12-06T09:39:47.765Z,4.80
2022-12-06T10:16:06.485Z,5.00
2022-12-06T10:23:49.723Z,5.00
2022-12-06T11:18:02.787Z,5.50
2022-12-06T12:32:11.740Z,7.20
2022-12-06T12:49:40.432Z,7.50
2022-12-06T12:53:00.403Z,7.50
2022-12-06T12:59:01.376Z,7.50
2022-12-06T13:01:42.299Z,7.40
2022-12-06T13:04:29.997Z,7.40
2022-12-06T13:07:03.467Z,7.40
2022-12-06T13:10:00.337Z,7.40
2022-12-06T13:13:09.021Z,7.40
2022-12-06T13:16:08.839Z,7.40
2022-12-06T13:18:50.506Z,7.40
2022-12-06T13:21:31.807Z,7.40
2022-12-06T13:24:23.947Z,7.40
2022-12-06T13:30:33.552Z,7.50
2022-12-06T13:33:19.239Z,7.40
2022-12-06T13:36:10.696Z,7.40
2022-12-06T13:39:30.142Z,7.40
2022-12-06T13:42:59.546Z,7.40
2022-12-06T13:46:12.819Z,7.30
2022-12-06T13:49:00.688Z,7.30
2022-12-06T13:51:39.211Z,7.30
2022-12-06T13:54:10.725Z,7.30
2022-12-06T13:56:43.684Z,7.30
2022-12-06T13:59:19.952Z,7.30
2022-12-06T14:02:20.573Z,7.30
2022-12-06T14:05:00.753Z,7.30
2022-12-06T14:07:36.751Z,7.30
2022-12-06T14:10:14.259Z,7.40
2022-12-06T14:12:45.930Z,7.40
2022-12-06T14:15:59.661Z,7.40
2022-12-06T14:18:40.966Z,7.40
2022-12-06T14:26:21.908Z,7.40
2022-12-06T14:29:15.136Z,7.30
2022-12-06T14:32:10.882Z,7.10
2022-12-06T14:42:53.933Z,6.80
2022-12-06T14:45:54.274Z,6.90
2022-12-06T14:48:23.123Z,6.90
2022-12-06T14:51:32.640Z,6.80
2022-12-06T14:54:32.004Z,6.80
2022-12-06T14:57:33.822Z,6.70
2022-12-06T15:00:27.030Z,6.60
2022-12-06T15:03:26.044Z,6.60
2022-12-06T15:07:12.662Z,6.60
2022-12-06T15:14:49.990Z,6.30
2022-12-06T15:17:25.732Z,6.30
2022-12-06T15:20:14.445Z,6.30
2022-12-06T15:25:59.530Z,6.30
2022-12-06T15:29:32.577Z,6.40
2022-12-06T15:32:04.246Z,6.50
2022-12-06T15:39:18.909Z,6.60
2022-12-06T16:05:49.547Z,6.50
2022-12-06T16:12:23.305Z,6.50
2022-12-06T16:15:32.278Z,6.50
2022-12-06T16:17:59.581Z,6.50
2022-12-06T16:20:35.649Z,6.50
2022-12-06T16:23:49.490Z,6.50
2022-12-06T16:26:16.877Z,6.60
2022-12-06T16:29:02.230Z,6.50
2022-12-06T16:31:38.752Z,6.50
2022-12-06T16:34:06.351Z,6.50
2022-12-06T16:36:34.168Z,6.50
2022-12-06T16:39:10.019Z,6.50
2022-12-06T16:41:37.284Z,6.50
2022-12-06T16:44:11.180Z,6.50
2022-12-06T16:46:40.777Z,6.50
2022-12-06T16:49:45.802Z,6.40
2022-12-06T16:52:14.426Z,6.50
2022-12-06T16:54:42.166Z,6.40
2022-12-06T16:57:17.109Z,6.40
2022-12-06T16:59:44.219Z,6.50
2022-12-06T17:02:27.943Z,6.50
2022-12-06T17:04:56.405Z,6.50
2022-12-06T17:07:29.500Z,6.50
2022-12-06T17:09:56.670Z,6.50
2022-12-06T17:12:23.925Z,6.50
2022-12-06T17:14:54.936Z,6.40
2022-12-06T17:17:57.312Z,6.30
2022-12-06T17:20:41.711Z,6.30
2022-12-06T17:23:08.984Z,6.20
2022-12-06T17:25:50.015Z,6.20
2022-12-06T17:28:53.790Z,6.20
2022-12-06T17:31:21.246Z,6.20
2022-12-06T17:38:18.169Z,6.20
2022-12-06T17:40:47.808Z,6.20
2022-12-06T17:43:17.262Z,6.20
2022-12-06T17:45:45.728Z,6.30
2022-12-06T17:48:14.733Z,6.30
2022-12-06T17:50:41.831Z,6.30
2022-12-06T17:53:14.343Z,6.20
2022-12-06T17:55:43.916Z,6.20
2022-12-06T17:58:11.089Z,6.10
2022-12-06T18:05:08.413Z,6.20
2022-12-06T18:07:54.176Z,6.20
2022-12-06T18:10:34.835Z,6.20
2022-12-06T18:13:11.391Z,6.20
2022-12-06T18:16:51.767Z,6.20
2022-12-06T18:23:21.156Z,6.00
2022-12-06T18:25:51.024Z,5.90
2022-12-06T18:28:21.118Z,5.80
2022-12-06T18:35:13.501Z,5.80
2022-12-06T18:37:41.298Z,5.70
2022-12-06T18:40:08.597Z,5.70
2022-12-06T18:42:42.346Z,5.60
2022-12-06T18:45:15.693Z,5.70
2022-12-06T19:04:53.836Z,5.80
2022-12-06T19:07:32.286Z,5.80
2022-12-06T19:09:59.631Z,5.90
2022-12-06T19:12:29.088Z,5.90
2022-12-06T19:15:07.102Z,5.80
2022-12-06T19:17:34.193Z,5.90
2022-12-06T19:20:01.802Z,5.80
2022-12-06T19:22:41.072Z,5.80
2022-12-06T19:25:09.160Z,5.90
2022-12-06T19:27:36.502Z,5.90
2022-12-06T19:30:07.777Z,5.80
2022-12-06T19:32:37.868Z,5.80
2022-12-06T19:35:08.554Z,5.70
2022-12-06T19:37:39.036Z,5.70
2022-12-06T19:40:06.854Z,5.70
2022-12-06T19:42:53.790Z,5.80
2022-12-06T19:45:20.952Z,5.80
2022-12-06T19:47:50.645Z,5.80
2022-12-06T19:50:20.050Z,5.70
2022-12-06T19:52:47.430Z,5.80
2022-12-06T19:55:19.580Z,5.80
2022-12-06T19:57:48.679Z,5.80
2022-12-06T20:00:21.103Z,5.80
2022-12-06T20:02:49.798Z,5.80
2022-12-06T20:05:22.658Z,5.80
2022-12-06T20:12:39.438Z,5.80
2022-12-06T20:15:34.396Z,5.80
2022-12-06T20:18:15.751Z,5.80
2022-12-06T20:20:51.519Z,5.80
2022-12-06T20:23:23.946Z,5.80
2022-12-06T20:25:56.069Z,5.80
2022-12-06T20:33:39.400Z,5.90
2022-12-06T20:36:43.426Z,5.90
2022-12-06T20:39:30.605Z,5.90
2022-12-06T20:41:59.538Z,5.80
2022-12-06T20:47:29.842Z,5.70
2022-12-06T20:50:07.571Z,5.60
2022-12-06T20:52:42.596Z,5.60
2022-12-06T20:55:42.022Z,5.60
2022-12-06T20:58:28.435Z,5.70
2022-12-06T21:01:03.092Z,5.60
2022-12-06T21:03:38.683Z,5.70
2022-12-06T21:06:13.012Z,5.70
2022-12-06T21:08:40.763Z,5.70
2022-12-06T21:11:22.686Z,5.70
2022-12-06T21:15:32.711Z,5.70
2022-12-06T21:18:59.220Z,5.70
2022-12-06T21:21:55.431Z,5.60
2022-12-06T21:24:22.763Z,5.60
2022-12-06T21:31:43.249Z,5.50
2022-12-06T21:34:19.167Z,5.50
2022-12-06T21:37:29.593Z,5.40
2022-12-06T21:40:09.640Z,5.40
2022-12-06T21:42:53.375Z,5.40
2022-12-06T21:49:02.124Z,5.40
2022-12-06T21:56:46.024Z,5.40
2022-12-06T22:03:26.672Z,5.30
2022-12-06T22:06:35.515Z,5.20
2022-12-06T22:09:51.785Z,5.30
2022-12-06T22:12:18.886Z,5.20
2022-12-06T22:15:39.301Z,5.20
2022-12-06T22:18:06.654Z,5.10
2022-12-06T22:21:09.863Z,5.10
2022-12-06T22:23:37.212Z,5.10
2022-12-06T22:26:18.453Z,5.00
2022-12-06T22:28:48.783Z,5.00
2022-12-06T22:31:30.929Z,5.00
2022-12-06T22:39:02.940Z,4.90
2022-12-06T22:41:31.392Z,4.80
2022-12-06T22:44:03.521Z,4.80
2022-12-06T22:46:31.553Z,4.80
2022-12-06T22:49:00.420Z,4.80
2022-12-06T22:51:38.319Z,4.80
2022-12-06T22:54:12.843Z,4.80
2022-12-06T22:56:49.445Z,4.80
2022-12-06T22:59:17.382Z,4.80
2022-12-06T23:01:45.671Z,4.90
2022-12-06T23:04:16.075Z,4.90
2022-12-06T23:06:44.569Z,4.90
2022-12-06T23:09:15.752Z,4.90
2022-12-06T23:11:46.071Z,5.00
2022-12-06T23:14:16.139Z,4.90
2022-12-06T23:16:55.035Z,4.90
2022-12-06T23:19:23.319Z,4.90
2022-12-06T23:21:50.821Z,4.90
2022-12-06T23:24:17.950Z,4.90
2022-12-06T23:26:51.976Z,4.90
2022-12-06T23:29:25.480Z,4.90
2022-12-06T23:31:55.599Z,4.90
2022-12-06T23:34:32.914Z,4.90
2022-12-06T23:37:04.955Z,4.90
2022-12-06T23:39:37.198Z,4.80
2022-12-06T23:42:04.569Z,4.80
2022-12-06T23:44:42.154Z,4.80
2022-12-06T23:47:10.675Z,4.90
2022-12-06T23:49:37.827Z,4.90
2022-12-06T23:52:07.110Z,5.00
2022-12-06T23:54:40.300Z,5.00
2022-12-06T23:57:07.362Z,5.00
2022-12-06T23:59:34.359Z,5.00
